Time;durP1;ratioP1;P1;durP2;ratioP2;P2;SDS_P1;SDS_P2;PMS_P1;PMS_P2;Temp;Humidity;BMP_temperature;BMP_pressure;BME280_temperature;BME280_humidity;BME280_pressure;Samples;Min_cycle;Max_cycle;Signal;HPM_P1;HPM_P2
2022/06/21 00:00:24;;;;;;;9.90;4.03;;;;;;;-141.50;100.00;63355.56;5017447;28;20361;-83
2022/06/21 00:03:01;;;;;;;12.43;4.35;;;;;;;-141.50;100.00;63355.56;5016932;28;20050;-83
2022/06/21 00:05:39;;;;;;;8.55;4.30;;;;;;;-141.50;100.00;63355.56;5016434;28;20133;-81
2022/06/21 00:08:11;;;;;;;14.50;4.72;;;;;;;-141.50;100.00;63355.56;5017695;28;20485;-82
2022/06/21 00:10:41;;;;;;;14.23;4.68;;;;;;;-141.50;100.00;63355.56;5017139;28;20054;-83
2022/06/21 00:13:17;;;;;;;10.27;4.93;;;;;;;-141.50;100.00;63355.56;5017733;28;20077;-83
2022/06/21 00:15:46;;;;;;;9.35;4.20;;;;;;;-141.50;100.00;63355.56;5017088;28;20073;-82
2022/06/21 00:18:17;;;;;;;14.00;5.20;;;;;;;-141.50;100.00;63355.56;5017079;28;20308;-83
2022/06/21 00:20:50;;;;;;;15.85;4.95;;;;;;;-141.50;100.00;63355.56;5016476;28;20050;-83
2022/06/21 00:23:22;;;;;;;11.80;4.80;;;;;;;-141.50;100.00;63355.56;5015720;28;20129;-85
2022/06/21 00:25:49;;;;;;;22.98;5.60;;;;;;;-141.50;100.00;63355.56;5022285;28;20126;-82
2022/06/21 00:28:18;;;;;;;13.23;4.72;;;;;;;-141.50;100.00;63355.56;5030355;28;20054;-84
2022/06/21 00:30:47;;;;;;;15.48;5.45;;;;;;;-141.50;100.00;63355.56;5019325;28;20145;-81
2022/06/21 00:33:15;;;;;;;13.40;5.43;;;;;;;-141.50;100.00;63355.56;4995909;28;20049;-81
2022/06/21 00:35:46;;;;;;;12.63;5.28;;;;;;;-141.50;100.00;63355.56;5012370;28;20100;-82
2022/06/21 00:38:27;;;;;;;11.48;4.85;;;;;;;-141.50;100.00;63355.56;5017057;28;20127;-84
2022/06/21 00:40:56;;;;;;;15.75;5.25;;;;;;;-141.50;100.00;63355.56;5024094;28;20100;-82
2022/06/21 00:43:28;;;;;;;14.30;5.25;;;;;;;-141.50;100.00;63355.56;5019327;28;20423;-85
2022/06/21 00:45:59;;;;;;;13.73;6.30;;;;;;;-141.50;100.00;63355.56;5015810;28;20041;-84
2022/06/21 00:48:41;;;;;;;13.27;5.82;;;;;;;-141.50;100.00;63355.56;4998536;28;20574;-84
2022/06/21 00:51:13;;;;;;;11.52;5.90;;;;;;;-141.50;100.00;63355.56;5016261;28;20152;-83
2022/06/21 00:53:48;;;;;;;12.60;5.38;;;;;;;-141.50;100.00;63355.56;5015039;28;20099;-83
2022/06/21 00:56:33;;;;;;;16.08;6.30;;;;;;;-141.50;100.00;63355.56;5015786;28;20054;-84
2022/06/21 00:59:22;;;;;;;12.82;6.13;;;;;;;-141.50;100.00;63355.56;5026329;28;20046;-81
2022/06/21 01:01:53;;;;;;;13.60;5.78;;;;;;;-141.50;100.00;63355.56;5031197;28;20049;-82
2022/06/21 01:04:35;;;;;;;15.85;5.90;;;;;;;-141.50;100.00;63355.56;5031614;28;20034;-82
2022/06/21 01:07:05;;;;;;;10.73;5.78;;;;;;;-141.50;100.00;63355.56;5030020;28;20066;-84
2022/06/21 01:09:40;;;;;;;17.95;6.10;;;;;;;-141.50;100.00;63355.56;5017951;28;20053;-84
2022/06/21 01:12:15;;;;;;;15.40;6.20;;;;;;;-141.50;100.00;63355.56;5015712;28;20096;-84
2022/06/21 01:15:06;;;;;;;14.20;6.35;;;;;;;-141.50;100.00;63355.56;5015407;28;20554;-82
2022/06/21 01:17:42;;;;;;;18.10;6.28;;;;;;;-141.50;100.00;63355.56;5016114;28;20077;-83
2022/06/21 01:20:14;;;;;;;15.45;5.82;;;;;;;-141.50;100.00;63355.56;5016358;28;20101;-83
2022/06/21 01:23:08;;;;;;;12.73;6.07;;;;;;;-141.50;100.00;63355.56;5014751;28;20061;-82
2022/06/21 01:26:07;;;;;;;15.57;6.20;;;;;;;-141.50;100.00;63355.56;5014861;28;20050;-83
2022/06/21 01:28:35;;;;;;;9.60;5.90;;;;;;;-141.50;100.00;63355.56;5014473;28;20124;-84
2022/06/21 01:31:02;;;;;;;14.80;6.30;;;;;;;-141.50;100.00;63355.56;5012023;28;20053;-83
2022/06/21 01:33:32;;;;;;;11.15;6.18;;;;;;;-141.50;100.00;63355.56;5013423;28;20058;-82
2022/06/21 01:36:04;;;;;;;16.48;6.57;;;;;;;-141.50;100.00;63355.56;5013792;28;20084;-82
2022/06/21 01:38:39;;;;;;;13.63;5.75;;;;;;;-141.50;100.00;63355.56;5013900;28;20520;-81
2022/06/21 01:41:10;;;;;;;14.90;5.90;;;;;;;-141.50;100.00;63355.56;5013858;28;20089;-82
2022/06/21 01:43:40;;;;;;;11.75;5.20;;;;;;;-141.50;100.00;63355.56;5019786;28;20658;-83
2022/06/21 01:46:17;;;;;;;12.07;6.13;;;;;;;-141.50;100.00;63355.56;5027178;28;20096;-82
2022/06/21 01:48:53;;;;;;;12.25;6.38;;;;;;;-141.50;100.00;63355.56;5015750;28;20069;-84
2022/06/21 01:51:33;;;;;;;9.65;6.18;;;;;;;-141.50;100.00;63355.56;5016521;28;20054;-82
2022/06/21 01:54:02;;;;;;;14.93;6.50;;;;;;;-141.50;100.00;63355.56;5014535;28;20497;-82
2022/06/21 01:56:36;;;;;;;14.15;6.22;;;;;;;-141.50;100.00;63355.56;5012335;28;20050;-83
2022/06/21 01:59:17;;;;;;;15.73;6.80;;;;;;;-141.50;100.00;63355.56;4996423;28;20332;-83
2022/06/21 02:01:50;;;;;;;14.35;7.28;;;;;;;-141.50;100.00;63355.56;5014531;28;20100;-81
2022/06/21 02:04:20;;;;;;;11.70;6.97;;;;;;;-141.50;100.00;63355.56;5014597;28;20046;-82
2022/06/21 02:06:50;;;;;;;16.55;6.90;;;;;;;-141.50;100.00;63355.56;5015686;28;20049;-82
2022/06/21 02:09:24;;;;;;;18.67;7.18;;;;;;;-141.50;100.00;63355.56;5015649;28;20445;-83
2022/06/21 02:12:00;;;;;;;11.23;6.97;;;;;;;-141.50;100.00;63355.56;5016840;28;20058;-84
2022/06/21 02:14:30;;;;;;;13.77;7.05;;;;;;;-141.50;100.00;63355.56;5001178;28;20081;-84
2022/06/21 02:17:12;;;;;;;16.65;7.40;;;;;;;-141.50;100.00;63355.56;5014044;28;20080;-84
2022/06/21 02:19:44;;;;;;;13.90;7.03;;;;;;;-141.50;100.00;63355.56;5016048;28;20092;-83
2022/06/21 02:22:15;;;;;;;11.68;6.85;;;;;;;-141.50;100.00;63355.56;4997529;28;20459;-82
2022/06/21 02:24:42;;;;;;;12.00;6.85;;;;;;;-141.50;100.00;63355.56;5015781;28;20080;-83
2022/06/21 02:27:11;;;;;;;11.07;6.72;;;;;;;-141.50;100.00;63355.56;5014873;28;20053;-82
2022/06/21 02:29:38;;;;;;;16.27;7.20;;;;;;;-141.50;100.00;63355.56;4997399;28;20045;-82
2022/06/21 02:32:27;;;;;;;12.20;7.38;;;;;;;-141.50;100.00;63355.56;4997146;28;20050;-80
2022/06/21 02:35:12;;;;;;;18.17;7.45;;;;;;;-141.50;100.00;63355.56;5014030;28;20050;-82
2022/06/21 02:37:39;;;;;;;17.33;7.05;;;;;;;-141.50;100.00;63355.56;4996511;28;20100;-82
2022/06/21 02:40:08;;;;;;;14.45;7.50;;;;;;;-141.50;100.00;63355.56;4996308;28;20110;-81
2022/06/21 02:42:40;;;;;;;20.23;7.05;;;;;;;-141.50;100.00;63355.56;5013204;28;20479;-83
2022/06/21 02:45:32;;;;;;;13.45;7.30;;;;;;;-141.50;100.00;63355.56;5012976;28;20054;-82
2022/06/21 02:48:10;;;;;;;13.35;7.30;;;;;;;-141.50;100.00;63355.56;4996756;28;20057;-81
2022/06/21 02:50:48;;;;;;;15.60;7.75;;;;;;;-141.50;100.00;63355.56;5024054;28;20084;-84
2022/06/21 02:53:19;;;;;;;;;;;;;;;-141.50;100.00;63355.56;5031624;28;20045;-82
2022/06/21 02:55:59;;;;;;;19.33;8.52;;;;;;;-141.50;100.00;63355.56;5033127;28;19909;-84
2022/06/21 02:58:37;;;;;;;18.55;9.45;;;;;;;-141.50;100.00;63355.56;5033505;28;20069;-84
2022/06/21 03:01:14;;;;;;;21.15;8.75;;;;;;;-141.50;100.00;63355.56;5012303;28;20046;-84
2022/06/21 03:03:40;;;;;;;14.00;8.25;;;;;;;-141.50;100.00;63355.56;5016783;28;20050;-83
2022/06/21 03:06:10;;;;;;;21.73;9.55;;;;;;;-141.50;100.00;63355.56;5014224;28;20112;-83
2022/06/21 03:08:49;;;;;;;15.77;9.38;;;;;;;-141.50;100.00;63355.56;4998758;28;20050;-83
2022/06/21 03:11:16;;;;;;;16.35;8.70;;;;;;;-141.50;100.00;63355.56;5016523;28;20050;-82
2022/06/21 03:13:43;;;;;;;19.98;9.60;;;;;;;-141.50;100.00;63355.56;5018794;28;20050;-82
2022/06/21 03:16:16;;;;;;;19.25;9.10;;;;;;;-141.50;100.00;63355.56;5018472;28;20046;-83
2022/06/21 03:18:49;;;;;;;24.13;9.85;;;;;;;-141.50;100.00;63355.56;5021275;28;20050;-83
2022/06/21 03:21:21;;;;;;;24.20;8.55;;;;;;;-141.50;100.00;63355.56;5005003;28;20049;-80
2022/06/21 03:23:48;;;;;;;18.38;9.38;;;;;;;-141.50;100.00;63355.56;5002312;28;20049;-84
2022/06/21 03:26:15;;;;;;;26.85;9.77;;;;;;;-141.50;100.00;63355.56;5024481;28;20358;-83
2022/06/21 03:28:47;;;;;;;20.60;9.68;;;;;;;-141.50;100.00;63355.56;5007114;28;20058;-82
2022/06/21 03:31:22;;;;;;;23.88;9.52;;;;;;;-141.50;100.00;63355.56;5024196;28;20064;-83
2022/06/21 03:33:53;;;;;;;20.10;8.25;;;;;;;-141.50;100.00;63355.56;5017772;28;20144;-84
2022/06/21 03:36:23;;;;;;;17.98;8.65;;;;;;;-141.50;100.00;63355.56;5018373;28;20482;-80
2022/06/21 03:41:42;;;;;;;22.38;8.75;;;;;;;-141.50;100.00;63355.56;5021637;28;20049;-83
2022/06/21 03:42:14;;;;;;;17.15;8.60;;;;;;;-141.50;100.00;63355.56;5021119;28;20128;-81
2022/06/21 03:44:45;;;;;;;15.50;8.63;;;;;;;-141.50;100.00;63355.56;5021701;28;20054;-83
2022/06/21 03:47:19;;;;;;;16.83;9.68;;;;;;;-141.50;100.00;63355.56;5000687;28;20050;-81
2022/06/21 03:50:01;;;;;;;16.00;8.87;;;;;;;-141.50;100.00;63355.56;5018021;28;20065;-82
2022/06/21 03:52:41;;;;;;;16.70;9.23;;;;;;;-141.50;100.00;63355.56;5020037;28;20385;-84
2022/06/21 03:55:14;;;;;;;20.75;9.77;;;;;;;-141.50;100.00;63355.56;5001274;28;20053;-83
2022/06/21 03:57:54;;;;;;;21.73;8.57;;;;;;;-141.50;100.00;63355.56;5028771;28;20034;-84
2022/06/21 04:00:20;;;;;;;19.25;9.00;;;;;;;-141.50;100.00;63355.56;5027539;28;20393;-83
2022/06/21 04:03:04;;;;;;;20.52;9.10;;;;;;;-141.50;100.00;63355.56;5018546;28;20108;-81
2022/06/21 04:05:40;;;;;;;18.10;8.98;;;;;;;-141.50;100.00;63355.56;5013965;28;20062;-82
2022/06/21 04:08:44;;;;;;;17.20;8.90;;;;;;;-141.50;100.00;63355.56;4998036;28;20077;-82
2022/06/21 04:11:19;;;;;;;18.42;9.15;;;;;;;-141.50;100.00;63355.56;5015074;28;20054;-80
2022/06/21 04:13:54;;;;;;;15.90;8.45;;;;;;;-141.50;100.00;63355.56;5014349;28;20057;-79
2022/06/21 04:16:31;;;;;;;21.48;9.07;;;;;;;-141.50;100.00;63355.56;5012721;28;20053;-79
2022/06/21 04:19:03;;;;;;;18.02;8.88;;;;;;;-141.50;100.00;63355.56;5015154;28;20058;-82
2022/06/21 04:21:50;;;;;;;19.23;8.57;;;;;;;-141.50;100.00;63355.56;5018609;28;20080;-80
2022/06/21 04:24:24;;;;;;;14.23;7.35;;;;;;;-141.50;100.00;63355.56;5011109;28;20125;-84
2022/06/21 04:27:00;;;;;;;14.68;6.90;;;;;;;-141.50;100.00;63355.56;5024730;28;20046;-80
2022/06/21 04:29:39;;;;;;;18.63;7.75;;;;;;;-141.50;100.00;63355.56;5011561;28;20073;-81
2022/06/21 04:32:16;;;;;;;18.73;7.13;;;;;;;-141.50;100.00;63355.56;5023533;28;20050;-85
2022/06/21 04:34:51;;;;;;;12.77;6.85;;;;;;;-141.50;100.00;63355.56;5017454;28;20058;-81
2022/06/21 04:37:21;;;;;;;18.42;7.28;;;;;;;-141.50;100.00;63355.56;5017624;28;20053;-85
2022/06/21 04:39:50;;;;;;;14.18;6.78;;;;;;;-141.50;100.00;63355.56;5016372;28;20124;-85
2022/06/21 04:42:24;;;;;;;14.32;6.35;;;;;;;-141.50;100.00;63355.56;5016272;28;20184;-83
2022/06/21 04:44:52;;;;;;;17.95;6.13;;;;;;;-141.50;100.00;63355.56;5014905;28;20073;-85
2022/06/21 04:47:38;;;;;;;11.05;5.97;;;;;;;-141.50;100.00;63355.56;5016801;28;20046;-85
2022/06/21 04:50:18;;;;;;;20.40;7.00;;;;;;;-141.50;100.00;63355.56;5020432;28;20331;-81
2022/06/21 04:52:53;;;;;;;19.30;5.85;;;;;;;-141.50;100.00;63355.56;5006808;28;20046;-81
2022/06/21 04:55:28;;;;;;;19.90;6.30;;;;;;;-141.50;100.00;63355.56;5016425;28;20513;-85
2022/06/21 04:57:54;;;;;;;12.18;5.55;;;;;;;-141.50;100.00;63355.56;5014503;28;20133;-86
2022/06/21 05:00:21;;;;;;;16.98;5.65;;;;;;;-141.50;100.00;63355.56;5013163;28;20084;-85
2022/06/21 05:03:08;;;;;;;13.30;5.63;;;;;;;-141.50;100.00;63355.56;4998497;28;20069;-85
2022/06/21 05:05:38;;;;;;;15.70;4.60;;;;;;;-141.50;100.00;63355.56;5019122;28;20046;-84
2022/06/21 05:08:10;;;;;;;14.40;4.15;;;;;;;-141.50;100.00;63355.56;5000448;28;20058;-84
2022/06/21 05:10:43;;;;;;;8.40;4.38;;;;;;;-141.50;100.00;63355.56;5016939;28;20401;-82
2022/06/21 05:13:22;;;;;;;15.20;4.13;;;;;;;-141.50;100.00;63355.56;5016441;28;20050;-86
2022/06/21 05:15:49;;;;;;;10.32;4.43;;;;;;;-141.50;100.00;63355.56;4994652;28;20045;-83
2022/06/21 05:18:34;;;;;;;10.10;3.92;;;;;;;-141.50;100.00;63355.56;5012190;28;20053;-85
2022/06/21 05:21:06;;;;;;;10.40;4.63;;;;;;;-141.50;100.00;63355.56;5012037;28;20045;-84
2022/06/21 05:23:33;;;;;;;13.52;4.45;;;;;;;-141.50;100.00;63355.56;5011892;28;20184;-82
2022/06/21 05:26:07;;;;;;;8.70;4.50;;;;;;;-141.50;100.00;63355.56;5010466;28;20532;-80
2022/06/21 05:28:39;;;;;;;15.10;4.43;;;;;;;-141.50;100.00;63355.56;4993199;28;20053;-81
2022/06/21 05:31:14;;;;;;;10.60;4.78;;;;;;;-141.50;100.00;63355.56;5011546;28;20057;-86
2022/06/21 05:33:48;;;;;;;9.85;5.03;;;;;;;-141.50;100.00;63355.56;5016224;28;20058;-86
2022/06/21 05:36:27;;;;;;;11.60;4.55;;;;;;;-141.50;100.00;63355.56;5019007;28;20425;-83
2022/06/21 05:39:00;;;;;;;10.65;4.65;;;;;;;-141.50;100.00;63355.56;5002620;28;20160;-81
2022/06/21 05:41:31;;;;;;;9.98;4.10;;;;;;;-141.50;100.00;63355.56;5010920;28;20113;-87
2022/06/21 05:44:00;;;;;;;12.65;4.47;;;;;;;-141.50;100.00;63355.56;5009453;28;20068;-85
2022/06/21 05:46:30;;;;;;;15.48;4.40;;;;;;;-141.50;100.00;63355.56;5010218;28;20116;-84
2022/06/21 05:48:59;;;;;;;12.07;4.18;;;;;;;-141.50;100.00;63355.56;5027692;28;20054;-81
2022/06/21 05:51:32;;;;;;;16.77;4.32;;;;;;;-141.50;100.00;63355.56;5002004;28;20050;-84
2022/06/21 05:54:01;;;;;;;12.93;4.80;;;;;;;-141.50;100.00;63355.56;5017330;28;20405;-85
2022/06/21 05:56:29;;;;;;;18.02;5.50;;;;;;;-141.50;100.00;63355.56;5015352;28;20060;-83
2022/06/21 05:59:13;;;;;;;14.98;5.50;;;;;;;-141.50;100.00;63355.56;5014153;28;20053;-81
2022/06/21 06:01:54;;;;;;;13.48;4.88;;;;;;;-141.50;100.00;63355.56;5014885;28;20053;-85
2022/06/21 06:04:33;;;;;;;12.60;4.70;;;;;;;-141.50;100.00;63355.56;4980322;28;20069;-84
2022/06/21 06:07:05;;;;;;;15.65;4.32;;;;;;;-141.50;100.00;63355.56;5010905;28;20045;-86
2022/06/21 06:09:40;;;;;;;11.00;4.05;;;;;;;-141.50;100.00;63355.56;5041385;28;20119;-82
2022/06/21 06:12:19;;;;;;;12.38;4.28;;;;;;;-141.50;100.00;63355.56;5036954;28;20114;-85
2022/06/21 06:14:51;;;;;;;9.77;3.67;;;;;;;-141.50;100.00;63355.56;5024902;28;20054;-85
2022/06/21 06:17:39;;;;;;;12.57;4.32;;;;;;;-141.50;100.00;63355.56;5039923;28;20053;-85
2022/06/21 06:20:11;;;;;;;10.18;3.90;;;;;;;-141.50;100.00;63355.56;5020855;28;20400;-84
2022/06/21 06:22:44;;;;;;;10.60;3.60;;;;;;;-141.50;100.00;63355.56;5018205;28;20093;-84
2022/06/21 06:25:40;;;;;;;11.40;4.32;;;;;;;-141.50;100.00;63355.56;5013447;28;20131;-84
2022/06/21 06:28:18;;;;;;;14.73;3.80;;;;;;;-141.50;100.00;63355.56;4985071;28;20046;-85
2022/06/21 06:30:48;;;;;;;12.80;3.78;;;;;;;-141.50;100.00;63355.56;5010636;28;20081;-84
2022/06/21 06:33:22;;;;;;;13.32;4.07;;;;;;;-141.50;100.00;63355.56;5011880;28;20141;-84
2022/06/21 06:35:49;;;;;;;13.20;3.73;;;;;;;-141.50;100.00;63355.56;4990143;28;20503;-83
2022/06/21 06:38:18;;;;;;;11.52;4.00;;;;;;;-141.50;100.00;63355.56;4993180;28;20379;-83
2022/06/21 06:41:10;;;;;;;14.68;3.88;;;;;;;-141.50;100.00;63355.56;4979838;28;20061;-81
2022/06/21 06:43:45;;;;;;;15.25;3.72;;;;;;;-141.50;100.00;63355.56;4994602;28;20058;-84
2022/06/21 06:46:27;;;;;;;19.40;4.28;;;;;;;-141.50;100.00;63355.56;4999115;28;20073;-87
2022/06/21 06:49:14;;;;;;;14.23;3.30;;;;;;;-141.50;100.00;63355.56;5010434;28;20516;-85
2022/06/21 06:52:28;;;;;;;13.07;3.58;;;;;;;-141.50;100.00;63355.56;4999672;28;20413;-82
2022/06/21 06:55:15;;;;;;;14.07;2.72;;;;;;;-141.50;100.00;63355.56;4974995;28;20161;-83
2022/06/21 06:57:48;;;;;;;7.95;2.90;;;;;;;-141.50;100.00;63355.56;5025828;28;20092;-85
2022/06/21 07:00:18;;;;;;;11.48;2.92;;;;;;;-141.50;100.00;63355.56;5040432;28;20050;-83
2022/06/21 07:02:52;;;;;;;10.45;2.42;;;;;;;-141.50;100.00;63355.56;5014235;28;20123;-83
2022/06/21 07:05:27;;;;;;;9.55;2.72;;;;;;;-141.50;100.00;63355.56;5015108;28;20054;-85
2022/06/21 07:08:01;;;;;;;7.38;2.60;;;;;;;-141.50;100.00;63355.56;5018456;28;20054;-84
2022/06/21 07:10:29;;;;;;;9.60;2.67;;;;;;;-141.50;100.00;63355.56;5033869;28;20046;-85
2022/06/21 07:12:56;;;;;;;15.23;2.80;;;;;;;-141.50;100.00;63355.56;5016753;28;20520;-85
2022/06/21 07:15:39;;;;;;;11.32;3.22;;;;;;;-141.50;100.00;63355.56;5018255;28;20357;-86
2022/06/21 07:18:37;;;;;;;10.95;2.97;;;;;;;-141.50;100.00;63355.56;5017691;28;20046;-86
2022/06/21 07:21:05;;;;;;;10.25;2.65;;;;;;;-141.50;100.00;63355.56;5013315;28;20061;-84
2022/06/21 07:23:32;;;;;;;8.75;2.70;;;;;;;-141.50;100.00;63355.56;4996411;28;20049;-83
2022/06/21 07:26:07;;;;;;;11.07;2.83;;;;;;;-141.50;100.00;63355.56;4995489;28;20049;-82
2022/06/21 07:28:37;;;;;;;8.38;2.30;;;;;;;-141.50;100.00;63355.56;5012726;28;20136;-85
2022/06/21 07:31:11;;;;;;;7.38;2.10;;;;;;;-141.50;100.00;63355.56;5014081;28;20112;-85
2022/06/21 07:33:43;;;;;;;13.82;2.42;;;;;;;-141.50;100.00;63355.56;5015208;28;20049;-85
2022/06/21 07:36:24;;;;;;;6.38;2.08;;;;;;;-141.50;100.00;63355.56;4997857;28;20046;-83
2022/06/21 07:39:01;;;;;;;7.40;2.30;;;;;;;-141.50;100.00;63355.56;5027379;28;20069;-84
2022/06/21 07:41:49;;;;;;;5.40;2.28;;;;;;;-141.50;100.00;63355.56;5036175;28;20037;-85
2022/06/21 07:44:28;;;;;;;9.60;2.40;;;;;;;-141.50;100.00;63355.56;5019446;28;20046;-86
2022/06/21 07:47:12;;;;;;;9.80;2.10;;;;;;;-141.50;100.00;63355.56;5036662;28;20038;-85
2022/06/21 07:49:46;;;;;;;11.52;2.17;;;;;;;-141.50;100.00;63355.56;5027342;28;20050;-85
2022/06/21 07:52:21;;;;;;;6.32;2.08;;;;;;;-141.50;100.00;63355.56;5019436;28;20524;-84
2022/06/21 07:55:03;;;;;;;10.05;2.17;;;;;;;-141.50;100.00;63355.56;5018549;28;20115;-85
2022/06/21 07:57:39;;;;;;;10.25;2.08;;;;;;;-141.50;100.00;63355.56;5036459;28;20532;-85
2022/06/21 08:00:14;;;;;;;9.35;1.95;;;;;;;-141.50;100.00;63355.56;5037238;28;20451;-84
2022/06/21 08:09:05;;;;;;;6.18;1.80;;;;;;;-141.50;100.00;63355.56;5038250;28;20057;-84
2022/06/21 08:11:38;;;;;;;6.30;1.73;;;;;;;-141.50;100.00;63355.56;5038824;28;20045;-84
2022/06/21 08:14:09;;;;;;;5.70;1.80;;;;;;;-141.50;100.00;63355.56;5033575;28;20047;-86
2022/06/21 08:17:01;;;;;;;12.35;2.55;;;;;;;-141.50;100.00;63355.56;5038628;28;20046;-85
2022/06/21 08:19:36;;;;;;;7.88;1.95;;;;;;;-141.50;100.00;63355.56;5026955;28;20086;-82
2022/06/21 08:22:07;;;;;;;7.38;1.75;;;;;;;-141.50;100.00;63355.56;5036185;28;20068;-85
2022/06/21 08:24:50;;;;;;;9.57;1.90;;;;;;;-141.50;100.00;63355.56;5041409;28;20050;-87
2022/06/21 08:27:47;;;;;;;7.10;1.40;;;;;;;-141.50;100.00;63355.56;5022958;28;20108;-85
2022/06/21 08:30:25;;;;;;;10.02;1.40;;;;;;;-141.50;100.00;63355.56;5013301;28;20053;-88
2022/06/21 08:33:30;;;;;;;5.68;1.35;;;;;;;-141.50;100.00;63355.56;5013326;28;20137;-85
2022/06/21 08:36:06;;;;;;;8.98;1.70;;;;;;;-141.50;100.00;63355.56;5007002;28;20506;-84
2022/06/21 08:38:53;;;;;;;5.93;1.67;;;;;;;-141.50;100.00;63355.56;5015444;28;20138;-84
2022/06/21 08:44:24;;;;;;;6.55;1.20;;;;;;;-141.50;100.00;63355.56;5011689;28;19921;-87
2022/06/21 08:47:32;;;;;;;7.72;1.48;;;;;;;-141.50;100.00;63355.56;5012803;28;20057;-86
2022/06/21 08:50:32;;;;;;;10.65;1.48;;;;;;;-141.50;100.00;63355.56;5012028;28;20528;-86
2022/06/21 08:52:59;;;;;;;10.68;1.70;;;;;;;-141.50;100.00;63355.56;5012470;28;20052;-85
2022/06/21 08:56:04;;;;;;;7.88;1.48;;;;;;;-141.50;100.00;63355.56;5010228;28;20504;-79
2022/06/21 08:59:01;;;;;;;8.77;1.58;;;;;;;-141.50;100.00;63355.56;4990797;28;20112;-86
2022/06/21 09:01:51;;;;;;;8.25;1.80;;;;;;;-141.50;100.00;63355.56;4994753;28;20077;-82
2022/06/21 09:04:18;;;;;;;6.60;1.25;;;;;;;-141.50;100.00;63355.56;5011067;28;20054;-84
2022/06/21 09:06:47;;;;;;;7.00;1.50;;;;;;;-141.50;100.00;63355.56;5012595;28;20058;-82
2022/06/21 09:09:42;;;;;;;6.25;1.10;;;;;;;-141.50;100.00;63355.56;5011264;28;20139;-84
2022/06/21 09:12:26;;;;;;;4.80;1.27;;;;;;;-141.50;100.00;63355.56;5012833;28;20053;-86
2022/06/21 09:15:15;;;;;;;6.22;1.60;;;;;;;-141.50;100.00;63355.56;5011122;28;20173;-85
2022/06/21 09:17:50;;;;;;;7.63;1.70;;;;;;;-141.50;100.00;63355.56;5025380;28;20046;-85
2022/06/21 09:20:39;;;;;;;6.03;1.38;;;;;;;-141.50;100.00;63355.56;5012072;28;20050;-83
2022/06/21 09:23:58;;;;;;;7.55;1.42;;;;;;;-141.50;100.00;63355.56;4996441;28;20065;-84
2022/06/21 09:26:42;;;;;;;6.20;1.65;;;;;;;-141.50;100.00;63355.56;5016419;28;20107;-82
2022/06/21 09:29:19;;;;;;;7.55;1.52;;;;;;;-141.50;100.00;63355.56;5033159;28;20071;-81
2022/06/21 09:31:54;;;;;;;5.20;1.33;;;;;;;-141.50;100.00;63355.56;5031836;28;20077;-84
2022/06/21 09:34:26;;;;;;;8.80;1.30;;;;;;;-141.50;100.00;63355.56;5022051;28;20088;-86
2022/06/21 09:37:11;;;;;;;7.43;1.45;;;;;;;-141.50;100.00;63355.56;5014879;28;20050;-86
2022/06/21 09:39:47;;;;;;;3.47;1.50;;;;;;;-141.50;100.00;63355.56;5012567;28;20057;-86
2022/06/21 09:42:40;;;;;;;4.93;1.38;;;;;;;-141.50;100.00;63355.56;5013578;28;20045;-83
2022/06/21 09:45:21;;;;;;;4.55;1.40;;;;;;;-141.50;100.00;63355.56;5001241;28;20050;-85
2022/06/21 09:48:03;;;;;;;6.60;1.35;;;;;;;-141.50;100.00;63355.56;5032059;28;20041;-86
2022/06/21 09:51:14;;;;;;;3.08;1.15;;;;;;;-141.50;100.00;63355.56;5017670;28;20119;-85
2022/06/21 09:53:56;;;;;;;4.53;1.20;;;;;;;-141.50;100.00;63355.56;5034649;28;20097;-88
2022/06/21 09:56:46;;;;;;;5.30;1.33;;;;;;;-141.50;100.00;63355.56;5034836;28;20167;-86
2022/06/21 09:59:35;;;;;;;6.13;1.50;;;;;;;-141.50;100.00;63355.56;5011354;28;20053;-86
2022/06/21 10:02:16;;;;;;;4.75;1.38;;;;;;;-141.50;100.00;63355.56;5023715;28;20100;-86
2022/06/21 10:04:52;;;;;;;3.45;1.27;;;;;;;-141.50;100.00;63355.56;5030758;28;20146;-84
2022/06/21 10:07:37;;;;;;;4.18;1.48;;;;;;;-141.50;100.00;63355.56;5019910;28;20045;-85
2022/06/21 10:10:19;;;;;;;2.88;1.10;;;;;;;-141.50;100.00;63355.56;5025553;28;20098;-84
2022/06/21 10:13:04;;;;;;;5.15;1.30;;;;;;;-141.50;100.00;63355.56;5024234;28;20050;-84
2022/06/21 10:15:47;;;;;;;6.50;1.27;;;;;;;-141.50;100.00;63355.56;5024205;28;20057;-86
2022/06/21 10:18:34;;;;;;;4.45;1.20;;;;;;;-141.50;100.00;63355.56;5019845;28;20316;-84
2022/06/21 10:21:21;;;;;;;6.53;1.27;;;;;;;-141.50;100.00;63355.56;5008493;28;20045;-85
2022/06/21 10:24:09;;;;;;;6.00;1.20;;;;;;;-141.50;100.00;63355.56;5016106;28;20049;-84
2022/06/21 10:26:42;;;;;;;2.88;1.10;;;;;;;-141.50;100.00;63355.56;5009885;28;20077;-85
2022/06/21 10:29:34;;;;;;;;;;;;;;;-141.50;100.00;63355.56;5024137;28;20492;-83
2022/06/21 10:32:07;;;;;;;4.32;1.35;;;;;;;-141.50;100.00;63355.56;5008716;28;19949;-83
2022/06/21 10:34:53;;;;;;;2.97;1.13;;;;;;;-141.50;100.00;63355.56;5013488;28;20093;-82
2022/06/21 10:37:31;;;;;;;3.20;1.30;;;;;;;-141.50;100.00;63355.56;5013479;28;20136;-83
2022/06/21 10:40:13;;;;;;;3.00;1.20;;;;;;;-141.50;100.00;63355.56;5013512;28;20057;-83
2022/06/21 10:43:00;;;;;;;2.80;1.00;;;;;;;-141.50;100.00;63355.56;5019450;28;20071;-85
2022/06/21 10:45:50;;;;;;;2.15;1.10;;;;;;;-141.50;100.00;63355.56;5018050;28;20049;-87
2022/06/21 10:48:41;;;;;;;3.08;1.20;;;;;;;-141.50;100.00;63355.56;5015279;28;20058;-84
2022/06/21 10:51:43;;;;;;;5.63;1.35;;;;;;;-141.50;100.00;63355.56;4997415;28;20064;-85
2022/06/21 10:54:10;;;;;;;4.60;1.42;;;;;;;-141.50;100.00;63355.56;5010661;28;20063;-84
2022/06/21 10:57:11;;;;;;;3.60;1.40;;;;;;;-141.50;100.00;63355.56;5011602;28;20053;-84
2022/06/21 11:03:32;;;;;;;4.32;1.40;;;;;;;-141.50;100.00;63355.56;5016717;28;20060;-83
2022/06/21 11:06:44;;;;;;;3.90;1.50;;;;;;;-141.50;100.00;63355.56;5016697;28;20053;-82
2022/06/21 11:09:26;;;;;;;2.90;1.30;;;;;;;-141.50;100.00;63355.56;5024265;28;20144;-84
2022/06/21 11:15:34;;;;;;;4.53;1.73;;;;;;;-141.50;100.00;63355.56;5032031;28;20059;-82
2022/06/21 11:18:24;;;;;;;2.58;1.50;;;;;;;-141.50;100.00;63355.56;5012546;28;20465;-84
2022/06/21 11:21:11;;;;;;;4.72;1.40;;;;;;;-141.50;100.00;63355.56;4993455;28;20449;-85
2022/06/21 11:24:14;;;;;;;4.65;1.40;;;;;;;-141.50;100.00;63355.56;5012628;28;20045;-82
2022/06/21 11:27:04;;;;;;;3.33;1.40;;;;;;;-141.50;100.00;63355.56;5014318;28;20492;-86
2022/06/21 11:29:56;;;;;;;4.78;1.35;;;;;;;-141.50;100.00;63355.56;4996198;28;20076;-83
2022/06/21 11:32:29;;;;;;;3.30;1.15;;;;;;;-141.50;100.00;63355.56;5051672;28;20053;-84
2022/06/21 11:35:25;;;;;;;4.90;1.33;;;;;;;-141.50;100.00;63355.56;5035530;28;20057;-85
2022/06/21 11:38:14;;;;;;;5.07;1.45;;;;;;;-141.50;100.00;63355.56;5040053;28;20034;-85
2022/06/21 11:41:06;;;;;;;4.70;1.27;;;;;;;-141.50;100.00;63355.56;5044646;28;20046;-86
2022/06/21 11:43:48;;;;;;;2.95;1.20;;;;;;;-141.50;100.00;63355.56;5001713;28;20053;-86
2022/06/21 11:46:21;;;;;;;3.75;1.10;;;;;;;-141.50;100.00;63355.56;5018976;28;20053;-84
2022/06/21 11:48:54;;;;;;;2.30;1.02;;;;;;;-141.50;100.00;63355.56;5019647;28;20045;-86
2022/06/21 11:52:02;;;;;;;2.97;1.23;;;;;;;-141.50;100.00;63355.56;5018229;28;20461;-85
2022/06/21 11:54:46;;;;;;;2.80;1.08;;;;;;;-141.50;100.00;63355.56;5020040;28;20062;-85
2022/06/21 11:57:25;;;;;;;2.40;1.10;;;;;;;-141.50;100.00;63355.56;5019741;28;20119;-84
2022/06/21 11:59:58;;;;;;;3.53;1.80;;;;;;;-141.50;100.00;63355.56;5016457;28;20073;-84
2022/06/21 12:02:29;;;;;;;2.70;1.10;;;;;;;-141.50;100.00;63355.56;5034501;28;20049;-85
2022/06/21 12:05:28;;;;;;;3.53;2.15;;;;;;;-141.50;100.00;63355.56;5017276;28;20067;-83
2022/06/21 12:08:39;;;;;;;3.30;1.25;;;;;;;-141.50;100.00;63355.56;5036116;28;20046;-83
2022/06/21 12:11:41;;;;;;;3.38;1.33;;;;;;;-141.50;100.00;63355.56;5014701;28;20045;-84